Weather History for Langdon, ND

Change the Weather History Date:

Friday, January 25, 2013

  Actual Average (KDVL) Record (KDVL)
Temperature  
Mean Temperature -4 °F -  
Max Temperature 8 °F 15 °F 46 °F (1973)
Min Temperature -16 °F -1 °F -31 °F (1972)
Degree Days  
Heating Degree Days 69    
Moisture  
Dew Point -13 °F    
Average Humidity 78    
Maximum Humidity 92    
Minimum Humidity 70    
Precipitation  
Precipitation 0.12 in - - ()
Sea Level Pressure  
Sea Level Pressure 30.06 in    
Wind  
Wind Speed 18 mph (NW)    
Max Wind Speed 36 mph    
Max Gust Speed 40 mph    
Visibility 7 miles    
Events Rain , Snow    
Averages and records for this station are not official NWS values.
T = Trace of Precipitation, MM = Missing Value Source: NWS Daily Summary

Daily Weather History Graph

Daily Weather History Graph

Search for Another Location

Airport:

Trip Planner

Search our weather history database for the weather conditions in past years. The results will help you decide how hot, cold, wet, or windy it might be!

Date:

Astronomy

Jan. 25, 2013 Rise Set
Actual Time 8:11 AM CST 5:20 PM CST
Civil Twilight 7:37 AM CST 5:55 PM CST
Nautical Twilight 6:58 AM CST 6:33 PM CST
Astronomical Twilight 6:21 AM CST 7:11 PM CST
Moon 4:19 PM CST (1/25) 6:53 AM CST (1/25)
Length of Visible Light 10h 18m
Length of Day
9h 09m
Waxing Gibbous, 98% of the Moon is Illuminated
Jan 25
Waxing Gibbous
Jan 26
Full
Feb 3
Last Quarter
Feb 10
New
Feb 17
First Quarter

Hourly Weather History & Observations

Time (CST) Temp. Windchill Dew Point Humidity Pressure Visibility Wind Dir Wind Speed Gust Speed Precip Events Conditions
12:15 AM 8.6 °F -10.0 °F 5.0 °F 85% 29.78 in 3.0 mi WNW 18.4 mph - N/A Snow Light Snow
12:35 AM 8.6 °F -10.5 °F 5.0 °F 85% 29.78 in 3.0 mi WNW 19.6 mph - 0.01 in Snow Light Snow
12:55 AM 8.6 °F -12.3 °F 5.0 °F 85% 29.78 in 1.2 mi WNW 24.2 mph - 0.03 in Snow Light Snow
1:15 AM 8.6 °F -14.5 °F 5.0 °F 85% 29.78 in 0.8 mi WNW 31.1 mph 35.7 mph 0.01 in Snow Light Snow
1:35 AM 6.8 °F -16.2 °F 3.2 °F 85% 29.79 in 0.2 mi WNW 28.8 mph - 0.03 in Snow Heavy Snow
1:55 AM 5.0 °F -17.9 °F 3.2 °F 92% 29.80 in 0.5 mi NW 26.5 mph 39.1 mph 0.05 in Snow Snow
2:15 AM 5.0 °F -20.7 °F -0.4 °F 78% 29.80 in 0.2 mi NW 35.7 mph 40.3 mph N/A Snow Heavy Snow
2:35 AM 1.4 °F -23.9 °F -0.4 °F 92% 29.82 in 0.2 mi NW 29.9 mph 39.1 mph 0.03 in Rain Light Freezing Rain
2:55 AM 1.4 °F -23.5 °F -0.4 °F 92% 29.84 in 0.5 mi NW 28.8 mph 34.5 mph 0.04 in Rain Light Freezing Rain
3:15 AM -0.4 °F -26.7 °F -2.2 °F 92% 29.85 in 0.5 mi NW 31.1 mph 40.3 mph N/A Rain Light Freezing Rain
3:35 AM -0.4 °F -25.6 °F -4.0 °F 85% 29.86 in 1.0 mi NW 27.6 mph 32.2 mph N/A   Overcast
3:55 AM -2.2 °F -26.2 °F -7.6 °F 78% 29.88 in 1.5 mi NW 23.0 mph 32.2 mph N/A   Mostly Cloudy
4:15 AM -4.0 °F -29.1 °F -7.6 °F 85% 29.89 in 1.8 mi NW 24.2 mph 29.9 mph N/A   Overcast
4:35 AM -4.0 °F -30.0 °F -9.4 °F 78% 29.90 in 1.2 mi NNW 26.5 mph 29.9 mph N/A   Overcast
4:55 AM -4.0 °F -28.6 °F -9.4 °F 78% 29.91 in 2.0 mi NNW 23.0 mph 29.9 mph N/A   Haze
5:15 AM -5.8 °F -32.0 °F -11.2 °F 77% 29.92 in 1.8 mi NNW 25.3 mph 29.9 mph N/A   Haze
5:35 AM -7.6 °F -32.9 °F -11.2 °F 84% 29.94 in 1.8 mi NNW 21.9 mph 32.2 mph N/A   Haze
5:55 AM -7.6 °F -33.9 °F -11.2 °F 84% 29.96 in 1.5 mi NNW 24.2 mph 27.6 mph N/A   Overcast
6:15 AM -7.6 °F -33.4 °F -13.0 °F 77% 29.97 in 1.8 mi NNW 23.0 mph 28.8 mph N/A   Haze
6:35 AM -9.4 °F -34.7 °F -13.0 °F 84% 29.99 in 2.0 mi NNW 20.7 mph - N/A   Haze
6:55 AM -9.4 °F -34.1 °F -13.0 °F 84% 30.00 in 3.0 mi NNW 19.6 mph - N/A   Haze
7:35 AM -9.4 °F -33.5 °F -14.8 °F 77% 30.02 in 5.0 mi NNW 18.4 mph - N/A   Haze
7:55 AM -9.4 °F -32.8 °F -16.6 °F 71% 30.03 in 7.0 mi NNW 17.3 mph - N/A   Overcast
8:15 AM -11.2 °F -33.7 °F -16.6 °F 77% 30.04 in 6.0 mi NNW 15.0 mph - N/A   Haze
8:35 AM -11.2 °F -33.7 °F -16.6 °F 77% 30.06 in 5.0 mi NW 15.0 mph - N/A   Haze
8:55 AM -11.2 °F -35.2 °F -16.6 °F 77% 30.07 in 5.0 mi NNW 17.3 mph - N/A   Haze
9:15 AM -11.2 °F -32.9 °F -16.6 °F 77% 30.09 in 6.0 mi NNW 13.8 mph - N/A   Haze
9:35 AM -11.2 °F -31.1 °F -18.4 °F 70% 30.09 in 7.0 mi NNW 11.5 mph - N/A   Overcast
9:55 AM - - - N/A% 30.10 in 7.0 mi NNW 15.0 mph - N/A   Overcast
10:15 AM -11.2 °F -33.7 °F -16.6 °F 77% 30.11 in 9.0 mi NNW 15.0 mph - N/A   Overcast
10:35 AM -11.2 °F -32.1 °F -16.6 °F 77% 30.12 in 7.0 mi NNW 12.7 mph - N/A   Overcast
10:55 AM -11.2 °F -32.9 °F -16.6 °F 77% 30.14 in 7.0 mi NNW 13.8 mph - N/A   Overcast
11:15 AM -11.2 °F -29.0 °F -16.6 °F 77% 30.15 in 9.0 mi NW 9.2 mph - N/A   Overcast
11:35 AM -9.4 °F -27.9 °F -16.6 °F 71% 30.16 in 10.0 mi NNW 10.4 mph - N/A   Overcast
11:55 AM -9.4 °F -29.8 °F -16.6 °F 71% 30.16 in 10.0 mi NNW 12.7 mph - N/A   Overcast
12:15 PM -9.4 °F -28.9 °F -14.8 °F 77% 30.16 in 10.0 mi NNW 11.5 mph - N/A   Overcast
12:35 PM -9.4 °F -27.9 °F -14.8 °F 77% 30.17 in 10.0 mi NW 10.4 mph - N/A   Overcast
1:15 PM -9.4 °F -27.9 °F -14.8 °F 77% 30.17 in 10.0 mi NW 10.4 mph - N/A   Mostly Cloudy
1:35 PM -7.6 °F -26.6 °F -13.0 °F 77% 30.17 in 10.0 mi NW 11.5 mph - N/A   Mostly Cloudy
1:55 PM -7.6 °F -26.6 °F -13.0 °F 77% 30.18 in 10.0 mi NW 11.5 mph - N/A   Partly Cloudy
2:15 PM -7.6 °F -25.7 °F -13.0 °F 77% 30.16 in 10.0 mi NNW 10.4 mph - N/A   Clear
2:35 PM -7.6 °F -25.7 °F -13.0 °F 77% 30.17 in 10.0 mi NW 10.4 mph - N/A   Clear
2:55 PM -7.6 °F -24.6 °F -13.0 °F 77% 30.17 in 10.0 mi NW 9.2 mph - N/A   Clear
3:15 PM -7.6 °F -23.4 °F -13.0 °F 77% 30.17 in 10.0 mi NW 8.1 mph - N/A   Clear
3:35 PM -7.6 °F -23.4 °F -13.0 °F 77% 30.16 in 10.0 mi WNW 8.1 mph - N/A   Clear
3:55 PM -7.6 °F -22.1 °F -13.0 °F 77% 30.17 in 10.0 mi NNW 6.9 mph - N/A   Clear
4:15 PM -7.6 °F -20.6 °F -13.0 °F 77% 30.16 in 10.0 mi NW 5.8 mph - N/A   Clear
4:35 PM -9.4 °F -20.9 °F -14.8 °F 77% 30.17 in 10.0 mi NNW 4.6 mph - N/A   Clear
4:55 PM -9.4 °F -24.3 °F -16.6 °F 71% 30.19 in 10.0 mi NW 6.9 mph - N/A   Clear
5:15 PM -11.2 °F -24.8 °F -16.6 °F 77% 30.20 in 10.0 mi NW 5.8 mph - N/A   Clear
5:35 PM -11.2 °F -20.6 °F -16.6 °F 77% 30.18 in 10.0 mi WNW 3.5 mph - N/A   Clear
5:55 PM -13.0 °F -22.7 °F -18.4 °F 77% 30.18 in 10.0 mi SW 3.5 mph - N/A   Clear
6:15 PM -13.0 °F - -18.4 °F 77% 30.16 in 10.0 mi Calm Calm - N/A   Clear
6:35 PM -13.0 °F -22.7 °F -18.4 °F 77% 30.16 in 10.0 mi SW 3.5 mph - N/A   Clear
6:55 PM -13.0 °F -28.6 °F -20.2 °F 70% 30.17 in 10.0 mi SW 6.9 mph - N/A   Clear
7:15 PM -13.0 °F -27.0 °F -18.4 °F 77% 30.16 in 10.0 mi SSW 5.8 mph - N/A   Clear
7:35 PM -13.0 °F -27.0 °F -20.2 °F 70% 30.16 in 10.0 mi SSW 5.8 mph - N/A   Clear
7:55 PM -16.6 °F -29.3 °F -20.2 °F 84% 30.18 in 10.0 mi SW 4.6 mph - N/A   Scattered Clouds
8:15 PM -14.8 °F -29.1 °F -20.2 °F 77% 30.18 in 10.0 mi SW 5.8 mph - N/A   Scattered Clouds
8:35 PM -13.0 °F -25.1 °F -20.2 °F 70% 30.18 in 10.0 mi SSW 4.6 mph - N/A   Scattered Clouds
8:55 PM -13.0 °F -25.1 °F -20.2 °F 70% 30.18 in 10.0 mi SSW 4.6 mph - N/A   Partly Cloudy
9:15 PM -13.0 °F -22.7 °F -18.4 °F 77% 30.18 in 10.0 mi South 3.5 mph - N/A   Clear
9:35 PM -13.0 °F -25.1 °F -20.2 °F 70% 30.17 in 10.0 mi SE 4.6 mph - N/A   Clear
9:55 PM -14.8 °F -30.8 °F -20.2 °F 77% 30.17 in 10.0 mi South 6.9 mph - N/A   Partly Cloudy
10:15 PM -13.0 °F -25.1 °F -18.4 °F 77% 30.17 in 10.0 mi SSE 4.6 mph - N/A   Mostly Cloudy
10:35 PM -11.2 °F -24.8 °F -16.6 °F 77% 30.16 in 10.0 mi SSE 5.8 mph - N/A   Overcast
10:55 PM -9.4 °F -25.6 °F -14.8 °F 77% 30.16 in 10.0 mi SSE 8.1 mph - N/A   Overcast
11:15 PM -9.4 °F -27.9 °F -14.8 °F 77% 30.15 in 10.0 mi South 10.4 mph - N/A   Scattered Clouds
11:35 PM -9.4 °F -28.9 °F -14.8 °F 77% 30.14 in 10.0 mi South 11.5 mph - N/A   Clear
11:55 PM -9.4 °F -29.8 °F -14.8 °F 77% 30.15 in 10.0 mi South 12.7 mph - N/A   Clear